createdAt,value
2022-08-04T00:00:05.754Z,80.63
2022-08-04T00:01:14.732Z,81.06
2022-08-04T00:02:25.579Z,80.82
2022-08-04T00:03:31.853Z,81.03
2022-08-04T00:04:42.183Z,80.77
2022-08-04T00:05:56.532Z,80.86
2022-08-04T00:07:06.440Z,81.02
2022-08-04T00:08:18.444Z,81.02
2022-08-04T00:09:27.652Z,81.24
2022-08-04T00:10:34.656Z,80.89
2022-08-04T00:11:41.980Z,80.97
2022-08-04T00:12:53.785Z,81.02
2022-08-04T00:14:05.926Z,81.12
2022-08-04T00:15:15.009Z,81.26
2022-08-04T00:16:22.099Z,81.55
2022-08-04T00:17:33.253Z,81.10
2022-08-04T00:18:42.938Z,81.08
2022-08-04T00:19:48.981Z,81.19
2022-08-04T00:20:56.770Z,81.05
2022-08-04T00:22:15.410Z,80.83
2022-08-04T00:23:19.174Z,80.95
2022-08-04T00:24:24.371Z,81.36
2022-08-04T00:25:28.810Z,81.70
2022-08-04T00:26:34.052Z,82.27
2022-08-04T00:27:37.831Z,82.52
2022-08-04T00:28:42.999Z,82.76
2022-08-04T00:30:06.599Z,82.71
2022-08-04T00:31:12.301Z,82.89
2022-08-04T00:32:33.670Z,83.01
2022-08-04T00:33:39.796Z,82.79
2022-08-04T00:34:48.959Z,82.98
2022-08-04T00:35:57.312Z,82.96
2022-08-04T00:37:02.190Z,82.74
2022-08-04T00:38:06.139Z,83.08
2022-08-04T00:39:14.284Z,82.58
2022-08-04T00:40:25.840Z,82.75
2022-08-04T00:41:56.476Z,82.89
2022-08-04T00:43:11.752Z,82.54
2022-08-04T00:44:25.087Z,82.62
2022-08-04T00:46:17.558Z,82.70
2022-08-04T00:47:30.071Z,82.23
2022-08-04T00:48:51.676Z,82.40
2022-08-04T00:50:07.700Z,82.77
2022-08-04T00:51:16.771Z,82.77
2022-08-04T00:52:34.971Z,82.27
2022-08-04T00:53:50.307Z,81.86
2022-08-04T00:55:10.211Z,81.90
2022-08-04T00:56:28.061Z,82.23
2022-08-04T00:57:41.639Z,81.99
2022-08-04T00:58:56.147Z,81.94
2022-08-04T01:00:12.396Z,82.03
2022-08-04T01:01:28.445Z,81.81
2022-08-04T01:02:39.583Z,82.03
2022-08-04T01:04:00.218Z,81.86
2022-08-04T01:05:06.760Z,81.88
2022-08-04T01:06:28.493Z,82.17
2022-08-04T01:08:15.901Z,82.28
2022-08-04T01:09:42.474Z,82.48
2022-08-04T01:10:53.414Z,82.85
2022-08-04T01:12:19.365Z,82.83
2022-08-04T01:13:36.329Z,83.48
2022-08-04T01:14:49.719Z,83.38
2022-08-04T01:16:08.459Z,84.04
2022-08-04T01:17:26.362Z,83.50
2022-08-04T01:18:51.463Z,83.72
2022-08-04T01:20:05.904Z,83.91
2022-08-04T01:21:59.010Z,83.98
2022-08-04T01:23:39.779Z,83.50
2022-08-04T01:25:13.081Z,83.43
2022-08-04T01:29:36.990Z,83.43
2022-08-04T01:30:59.918Z,83.25
2022-08-04T01:32:09.591Z,82.93
2022-08-04T01:33:15.102Z,82.99
2022-08-04T01:34:22.772Z,82.98
2022-08-04T01:35:47.995Z,83.24
2022-08-04T01:37:09.778Z,83.20
2022-08-04T01:38:21.859Z,83.19
2022-08-04T01:39:42.241Z,83.20
2022-08-04T01:40:47.920Z,83.51
2022-08-04T01:41:58.384Z,83.62
2022-08-04T01:43:07.401Z,83.45
2022-08-04T01:44:12.393Z,83.29
2022-08-04T01:45:22.722Z,83.78
2022-08-04T01:46:27.514Z,83.71
2022-08-04T01:47:41.550Z,83.31
2022-08-04T01:48:48.401Z,83.97
2022-08-04T01:49:53.781Z,83.67
2022-08-04T01:50:59.998Z,83.80
2022-08-04T01:52:05.580Z,83.94
2022-08-04T01:53:10.972Z,83.69
2022-08-04T01:54:17.431Z,83.69
2022-08-04T01:55:23.774Z,83.99
2022-08-04T01:56:48.771Z,83.86
2022-08-04T01:58:02.407Z,83.94
2022-08-04T01:59:16.399Z,83.63
2022-08-04T02:02:20.198Z,83.79
2022-08-04T02:04:18.777Z,83.82
2022-08-04T02:04:55.020Z,83.76
2022-08-04T02:06:18.974Z,83.21
2022-08-04T02:07:35.184Z,83.21
2022-08-04T02:08:53.775Z,83.57
2022-08-04T02:10:06.801Z,83.60
2022-08-04T02:12:27.787Z,83.78
2022-08-04T02:13:38.645Z,83.86
2022-08-04T02:14:56.000Z,83.96
2022-08-04T02:16:07.179Z,83.88
2022-08-04T02:18:54.429Z,83.77
2022-08-04T02:20:09.087Z,83.57
2022-08-04T02:21:15.481Z,83.61
2022-08-04T02:22:19.965Z,83.96
2022-08-04T02:23:31.692Z,83.81
2022-08-04T02:26:39.000Z,84.39
2022-08-04T02:28:04.932Z,84.26
2022-08-04T02:29:15.524Z,84.31
2022-08-04T02:30:20.017Z,83.81
2022-08-04T02:31:29.787Z,84.35
2022-08-04T02:32:40.089Z,84.10
2022-08-04T02:33:47.330Z,84.40
2022-08-04T02:34:55.960Z,84.58
2022-08-04T02:36:03.325Z,84.72
2022-08-04T02:37:07.091Z,84.57
2022-08-04T02:38:18.340Z,84.71
2022-08-04T02:39:41.446Z,84.46
2022-08-04T02:40:52.522Z,84.60
2022-08-04T02:41:57.687Z,84.58
2022-08-04T02:43:04.803Z,84.41
2022-08-04T02:44:12.195Z,84.77
2022-08-04T02:45:19.520Z,84.91
2022-08-04T02:46:25.182Z,84.41
2022-08-04T02:48:19.349Z,84.44
2022-08-04T02:48:56.511Z,84.82
2022-08-04T02:49:59.982Z,84.72
2022-08-04T02:51:07.599Z,84.67
2022-08-04T02:52:33.292Z,84.73
2022-08-04T02:53:37.998Z,84.50
2022-08-04T02:54:43.517Z,84.28
2022-08-04T02:55:56.962Z,84.25
2022-08-04T02:57:04.591Z,84.80
2022-08-04T02:58:13.403Z,84.44
2022-08-04T02:59:20.306Z,84.43
2022-08-04T03:00:26.547Z,84.83
2022-08-04T03:01:31.870Z,84.93
2022-08-04T03:02:44.030Z,84.47
2022-08-04T03:03:53.246Z,84.61
2022-08-04T03:04:58.763Z,85.02
2022-08-04T03:06:31.619Z,85.37
2022-08-04T03:08:05.839Z,84.65
2022-08-04T03:09:44.235Z,84.35
2022-08-04T03:11:24.874Z,85.25
2022-08-04T03:13:09.973Z,85.98
2022-08-04T03:14:34.974Z,85.99
2022-08-04T03:15:56.481Z,85.84
2022-08-04T03:17:33.722Z,86.18
2022-08-04T03:19:17.687Z,85.48
2022-08-04T03:21:09.362Z,85.49
2022-08-04T03:23:17.337Z,85.69
2022-08-04T03:24:51.465Z,85.89
2022-08-04T03:26:25.844Z,86.34
2022-08-04T03:28:02.143Z,86.82
2022-08-04T03:29:37.106Z,87.50
2022-08-04T03:30:55.442Z,87.20
2022-08-04T03:32:33.183Z,87.16
2022-08-04T03:33:52.466Z,87.11
2022-08-04T03:35:04.631Z,86.87
2022-08-04T03:36:41.514Z,87.18
2022-08-04T03:38:03.804Z,87.63
2022-08-04T03:39:52.859Z,87.53
2022-08-04T03:41:16.559Z,87.63
2022-08-04T03:43:57.818Z,87.49
2022-08-04T03:45:23.371Z,87.58
2022-08-04T03:46:56.519Z,87.33
2022-08-04T03:48:11.612Z,86.99
2022-08-04T03:49:40.853Z,87.53
2022-08-04T03:51:36.096Z,86.87
2022-08-04T03:53:10.490Z,86.88
2022-08-04T03:54:41.463Z,87.46
2022-08-04T03:56:20.657Z,87.41
2022-08-04T03:57:57.200Z,87.81
2022-08-04T03:59:25.368Z,88.28
2022-08-04T04:00:33.107Z,88.02
2022-08-04T04:02:02.567Z,88.82
2022-08-04T04:03:39.115Z,89.06
2022-08-04T04:05:06.703Z,89.39
2022-08-04T04:06:53.950Z,89.38
2022-08-04T04:08:45.187Z,89.74
2022-08-04T04:10:11.559Z,89.80
2022-08-04T04:11:54.274Z,90.16
2022-08-04T04:13:26.967Z,90.54
2022-08-04T04:14:49.226Z,90.83
2022-08-04T04:16:02.626Z,90.45
2022-08-04T04:17:28.143Z,90.79
2022-08-04T04:18:53.997Z,91.20
2022-08-04T04:20:27.371Z,91.63
2022-08-04T04:21:43.292Z,91.60
2022-08-04T04:23:00.246Z,91.27
2022-08-04T04:24:19.046Z,91.33
2022-08-04T04:25:34.412Z,91.54
2022-08-04T04:26:54.457Z,91.77
2022-08-04T04:28:45.621Z,91.92
2022-08-04T04:29:59.553Z,91.44
2022-08-04T04:31:14.165Z,90.98
2022-08-04T04:32:24.041Z,90.99
2022-08-04T04:33:39.212Z,90.95
2022-08-04T04:34:51.309Z,91.30
2022-08-04T04:36:01.267Z,90.94
2022-08-04T04:37:14.984Z,90.82
2022-08-04T04:38:43.547Z,90.73
2022-08-04T04:39:57.844Z,90.62
2022-08-04T04:41:23.895Z,90.29
2022-08-04T04:42:39.236Z,90.59
2022-08-04T04:44:02.606Z,90.38
2022-08-04T04:45:28.946Z,90.19
2022-08-04T04:46:38.819Z,90.32
2022-08-04T04:48:09.789Z,90.39
2022-08-04T04:49:23.327Z,90.55
2022-08-04T04:50:40.093Z,90.72
2022-08-04T04:51:50.565Z,91.16
2022-08-04T04:52:57.836Z,91.11
2022-08-04T04:54:08.035Z,91.46
2022-08-04T04:55:19.086Z,92.09
2022-08-04T04:56:29.851Z,91.99
2022-08-04T04:57:54.508Z,92.16
2022-08-04T04:59:00.561Z,92.22
2022-08-04T05:00:08.030Z,92.52
2022-08-04T05:02:26.178Z,92.52
2022-08-04T05:04:02.026Z,92.79
2022-08-04T05:05:28.894Z,92.42
2022-08-04T05:06:54.317Z,92.42
2022-08-04T05:08:43.306Z,92.29
2022-08-04T05:09:57.206Z,92.22
2022-08-04T05:11:28.714Z,92.20
2022-08-04T05:14:32.885Z,91.80
2022-08-04T05:14:35.875Z,92.09
2022-08-04T05:15:48.218Z,92.12
2022-08-04T05:16:56.651Z,92.29
2022-08-04T05:18:03.065Z,92.16
2022-08-04T05:19:15.727Z,91.97
2022-08-04T05:20:24.541Z,92.31
2022-08-04T05:21:37.223Z,91.97
2022-08-04T05:22:44.884Z,91.90
2022-08-04T05:23:50.985Z,91.85
2022-08-04T05:25:02.462Z,91.33
2022-08-04T05:26:10.356Z,90.85
2022-08-04T05:27:19.126Z,90.49
2022-08-04T05:28:26.052Z,89.71
2022-08-04T05:29:33.654Z,89.64
2022-08-04T05:30:48.845Z,89.52
2022-08-04T05:31:54.611Z,89.21
2022-08-04T05:33:03.848Z,88.36
2022-08-04T05:34:11.287Z,87.77
2022-08-04T05:35:50.468Z,87.63
2022-08-04T05:36:49.686Z,87.89
2022-08-04T05:38:01.343Z,87.53
2022-08-04T05:39:06.842Z,87.25
2022-08-04T05:40:13.042Z,87.00
2022-08-04T05:41:17.945Z,86.24
2022-08-04T05:42:23.453Z,85.76
2022-08-04T05:43:27.067Z,85.45
2022-08-04T05:44:31.670Z,85.16
2022-08-04T05:45:38.882Z,84.40
2022-08-04T05:46:43.468Z,83.89
2022-08-04T05:47:48.563Z,83.29
2022-08-04T05:48:52.144Z,82.74
2022-08-04T05:50:01.324Z,82.62
2022-08-04T05:51:07.615Z,82.52
2022-08-04T05:52:12.484Z,81.49
2022-08-04T05:53:16.238Z,80.87
2022-08-04T05:54:22.506Z,79.67
2022-08-04T05:55:48.799Z,79.03
2022-08-04T05:56:55.464Z,78.79
2022-08-04T05:58:00.941Z,78.59
2022-08-04T05:59:05.313Z,77.56
2022-08-04T06:00:38.994Z,76.90
2022-08-04T06:01:54.930Z,76.64
2022-08-04T06:02:59.806Z,76.06
2022-08-04T06:04:05.747Z,76.16
2022-08-04T06:05:16.532Z,76.35
2022-08-04T06:06:20.826Z,75.21
2022-08-04T06:07:26.723Z,74.02
2022-08-04T06:08:30.554Z,73.72
2022-08-04T06:09:35.016Z,72.86
2022-08-04T06:10:39.536Z,71.95
2022-08-04T06:12:03.809Z,70.96
2022-08-04T06:13:46.723Z,70.49
2022-08-04T06:14:42.449Z,71.66
2022-08-04T06:15:46.435Z,70.88
2022-08-04T06:16:51.725Z,69.74
2022-08-04T06:18:34.008Z,69.22
2022-08-04T06:19:59.485Z,68.75
2022-08-04T06:20:54.503Z,68.79
2022-08-04T06:21:59.657Z,68.06
2022-08-04T06:23:06.577Z,68.03
2022-08-04T06:24:12.686Z,67.47
2022-08-04T06:25:20.759Z,66.65
2022-08-04T06:26:25.007Z,65.68
2022-08-04T06:27:31.768Z,64.68
2022-08-04T06:28:37.395Z,64.15
2022-08-04T06:29:51.162Z,63.67
2022-08-04T06:30:55.824Z,63.62
2022-08-04T06:32:31.616Z,63.58
2022-08-04T06:33:54.544Z,63.09
2022-08-04T06:35:02.130Z,63.50
2022-08-04T06:36:07.203Z,63.01
2022-08-04T06:37:11.694Z,62.60
2022-08-04T06:38:29.014Z,61.73
2022-08-04T06:39:33.330Z,60.86
2022-08-04T06:40:37.905Z,60.07
2022-08-04T06:42:02.483Z,59.56
2022-08-04T06:43:07.669Z,59.55
2022-08-04T06:44:13.642Z,59.01
2022-08-04T06:45:18.444Z,58.61
2022-08-04T06:46:22.116Z,58.67
2022-08-04T06:47:26.687Z,58.24
2022-08-04T06:48:33.275Z,57.82
2022-08-04T06:51:24.860Z,57.16
2022-08-04T06:51:26.909Z,57.59
2022-08-04T06:52:27.799Z,58.16
2022-08-04T06:53:30.905Z,57.28
2022-08-04T06:54:35.248Z,56.61
2022-08-04T06:55:38.956Z,56.17
2022-08-04T06:56:45.278Z,56.16
2022-08-04T06:57:49.816Z,55.54
2022-08-04T06:58:53.769Z,55.25
2022-08-04T07:00:01.939Z,55.75
2022-08-04T07:01:06.058Z,55.81
2022-08-04T07:02:14.854Z,54.43
2022-08-04T07:03:19.085Z,54.08
2022-08-04T07:04:23.448Z,54.15
2022-08-04T07:05:27.010Z,54.15
2022-08-04T07:06:31.544Z,53.56
2022-08-04T07:07:37.275Z,53.71
2022-08-04T07:09:00.994Z,53.48
2022-08-04T07:10:05.038Z,51.83
2022-08-04T07:11:09.473Z,51.10
2022-08-04T07:12:14.606Z,51.55
2022-08-04T07:13:19.153Z,51.31
2022-08-04T07:14:24.269Z,51.14
2022-08-04T07:15:29.198Z,51.00
2022-08-04T07:16:33.976Z,50.46
2022-08-04T07:17:38.207Z,50.37
2022-08-04T07:18:42.597Z,49.89
2022-08-04T07:19:45.833Z,49.27
2022-08-04T07:20:50.136Z,48.44
2022-08-04T07:22:16.172Z,48.30
2022-08-04T07:23:20.019Z,48.46
2022-08-04T07:24:30.275Z,45.86
2022-08-04T07:26:00.239Z,45.78
2022-08-04T07:27:00.348Z,46.30
2022-08-04T07:28:03.857Z,45.50
2022-08-04T07:29:08.240Z,45.32
2022-08-04T07:30:13.256Z,44.76
2022-08-04T07:31:35.352Z,44.44
2022-08-04T07:32:41.646Z,44.26
2022-08-04T07:33:45.526Z,44.38
2022-08-04T07:35:20.031Z,44.88
2022-08-04T07:36:49.940Z,44.50
2022-08-04T07:37:55.392Z,44.36
2022-08-04T07:39:00.216Z,43.81
2022-08-04T07:40:05.850Z,42.74
2022-08-04T07:42:34.213Z,43.69
2022-08-04T07:43:38.904Z,43.76
2022-08-04T07:44:43.274Z,43.26
2022-08-04T07:45:46.473Z,42.92
2022-08-04T07:46:52.135Z,41.84
2022-08-04T07:48:04.750Z,41.73
2022-08-04T07:49:10.420Z,40.79
2022-08-04T07:50:13.672Z,41.28
2022-08-04T07:51:18.241Z,40.47
2022-08-04T07:52:22.110Z,40.27
2022-08-04T07:53:54.421Z,40.17
2022-08-04T07:54:52.386Z,39.10
2022-08-04T07:55:56.356Z,39.90
2022-08-04T07:57:01.026Z,39.90
2022-08-04T07:58:04.337Z,39.72
2022-08-04T07:59:08.569Z,40.26
2022-08-04T08:00:15.099Z,40.12
2022-08-04T08:01:20.770Z,39.83
2022-08-04T08:02:25.658Z,38.84
2022-08-04T08:03:29.964Z,38.92
2022-08-04T08:04:33.053Z,39.25
2022-08-04T08:06:16.822Z,39.36
2022-08-04T08:07:01.494Z,37.91
2022-08-04T08:08:05.368Z,38.33
2022-08-04T08:09:12.479Z,38.22
2022-08-04T08:10:18.233Z,39.22
2022-08-04T08:11:23.033Z,38.80
2022-08-04T08:12:35.577Z,38.40
2022-08-04T08:13:51.586Z,38.47
2022-08-04T08:14:56.299Z,39.19
2022-08-04T08:16:01.118Z,38.37
2022-08-04T08:17:05.943Z,38.37
2022-08-04T08:18:10.556Z,38.05
2022-08-04T08:19:14.803Z,38.63
2022-08-04T08:20:29.720Z,39.36
2022-08-04T08:21:33.597Z,38.78
2022-08-04T08:22:38.667Z,37.61
2022-08-04T08:23:42.915Z,37.34
2022-08-04T08:24:46.045Z,36.91
2022-08-04T08:25:50.317Z,37.41
2022-08-04T08:26:54.453Z,36.41
2022-08-04T08:27:57.596Z,37.20
2022-08-04T08:29:01.734Z,37.08
2022-08-04T08:30:06.785Z,36.94
2022-08-04T08:31:12.046Z,37.12
2022-08-04T08:32:17.139Z,36.61
2022-08-04T08:33:22.460Z,36.28
2022-08-04T08:34:28.241Z,36.70
2022-08-04T08:35:39.793Z,35.67
2022-08-04T08:37:03.225Z,35.77
2022-08-04T08:38:08.761Z,35.89
2022-08-04T08:39:15.920Z,35.62
2022-08-04T08:40:41.121Z,34.63
2022-08-04T08:42:16.875Z,35.41
2022-08-04T08:44:00.560Z,35.49
2022-08-04T08:45:20.575Z,35.00
2022-08-04T08:46:50.235Z,33.71
2022-08-04T08:48:17.503Z,33.86
2022-08-04T08:50:01.901Z,34.77
2022-08-04T08:51:38.746Z,34.76
2022-08-04T08:53:04.455Z,35.41
2022-08-04T08:54:27.474Z,36.22
2022-08-04T08:55:41.995Z,36.11
2022-08-04T08:56:54.699Z,35.79
2022-08-04T08:58:09.736Z,35.04
2022-08-04T08:59:37.785Z,34.59
2022-08-04T09:00:49.380Z,35.57
2022-08-04T09:02:03.842Z,35.68
2022-08-04T09:03:31.924Z,35.40
2022-08-04T09:05:15.463Z,35.79
2022-08-04T09:06:41.055Z,35.47
2022-08-04T09:07:59.734Z,35.59
2022-08-04T09:09:31.753Z,34.81
2022-08-04T09:10:42.753Z,35.52
2022-08-04T09:11:55.374Z,36.19
2022-08-04T09:13:04.644Z,35.77
2022-08-04T09:14:15.306Z,36.34
2022-08-04T09:15:25.901Z,36.01
2022-08-04T09:16:36.520Z,35.55
2022-08-04T09:17:45.025Z,35.71
2022-08-04T09:18:56.061Z,35.41
2022-08-04T09:20:04.722Z,35.19
2022-08-04T09:21:17.480Z,35.91
2022-08-04T09:22:33.266Z,35.95
2022-08-04T09:23:42.646Z,36.08
2022-08-04T09:24:54.062Z,35.85
2022-08-04T09:26:04.089Z,36.46
2022-08-04T09:27:13.047Z,35.82
2022-08-04T09:28:43.738Z,35.31
2022-08-04T09:29:51.773Z,35.69
2022-08-04T09:31:00.912Z,35.37
2022-08-04T09:32:10.560Z,35.56
2022-08-04T09:33:45.816Z,35.58
2022-08-04T09:35:02.050Z,33.89
2022-08-04T09:36:26.062Z,33.67
2022-08-04T09:37:45.819Z,34.12
2022-08-04T09:39:04.854Z,35.17
2022-08-04T09:40:31.903Z,35.20
2022-08-04T09:42:10.026Z,34.27
2022-08-04T09:43:21.143Z,34.32
2022-08-04T09:44:52.268Z,34.13
2022-08-04T09:46:01.247Z,34.35
2022-08-04T09:47:10.873Z,34.09
2022-08-04T09:48:21.475Z,33.01
2022-08-04T09:49:31.435Z,33.51
2022-08-04T09:50:37.233Z,34.18
2022-08-04T09:51:58.472Z,33.36
2022-08-04T09:53:28.089Z,32.68
2022-08-04T09:54:42.271Z,33.60
2022-08-04T09:55:54.332Z,33.77
2022-08-04T09:57:08.724Z,33.65
2022-08-04T09:58:22.893Z,33.52
2022-08-04T09:59:30.352Z,34.18
2022-08-04T10:00:42.383Z,33.55
2022-08-04T10:01:46.134Z,33.75
2022-08-04T10:02:54.181Z,33.40
2022-08-04T10:04:01.955Z,33.42
2022-08-04T10:05:23.527Z,32.87
2022-08-04T10:06:47.751Z,33.27
2022-08-04T10:08:16.198Z,33.25
2022-08-04T10:09:36.636Z,33.98
2022-08-04T10:10:53.904Z,34.15
2022-08-04T10:12:06.437Z,32.64
2022-08-04T10:13:21.455Z,32.83
2022-08-04T10:14:50.306Z,32.78
2022-08-04T10:16:06.759Z,33.99
2022-08-04T10:17:23.554Z,32.35
2022-08-04T10:18:41.812Z,32.91
2022-08-04T10:19:45.118Z,33.47
2022-08-04T10:21:06.804Z,33.30
2022-08-04T10:22:28.820Z,33.41
2022-08-04T10:23:56.076Z,33.94
2022-08-04T10:26:02.844Z,33.07
2022-08-04T10:26:39.071Z,33.17
2022-08-04T10:27:47.317Z,33.14
2022-08-04T10:28:54.283Z,32.90
2022-08-04T10:30:02.305Z,33.26
2022-08-04T10:31:10.150Z,32.71
2022-08-04T10:32:20.074Z,32.01
2022-08-04T10:33:26.577Z,32.30
2022-08-04T10:34:37.518Z,32.60
2022-08-04T10:35:47.064Z,32.73
2022-08-04T10:36:57.797Z,32.69
2022-08-04T10:38:08.411Z,32.21
2022-08-04T10:39:42.215Z,32.24
2022-08-04T10:40:45.635Z,32.65
2022-08-04T10:41:56.254Z,33.32
2022-08-04T10:43:21.038Z,32.83
2022-08-04T10:44:42.173Z,32.89
2022-08-04T10:45:56.099Z,33.33
2022-08-04T10:47:04.575Z,32.90
2022-08-04T10:48:13.339Z,33.53
2022-08-04T10:49:22.793Z,33.05
2022-08-04T10:50:28.376Z,33.00
2022-08-04T10:51:57.363Z,32.83
2022-08-04T10:53:08.652Z,33.47
2022-08-04T10:54:17.459Z,33.10
2022-08-04T10:55:24.046Z,32.39
2022-08-04T10:56:56.560Z,33.07
2022-08-04T10:58:03.125Z,33.15
2022-08-04T10:59:12.163Z,33.38
2022-08-04T11:00:20.178Z,33.27
2022-08-04T11:02:01.199Z,34.04
2022-08-04T11:02:53.915Z,33.99
2022-08-04T11:04:01.233Z,34.13
2022-08-04T11:05:14.452Z,33.33
2022-08-04T11:06:20.657Z,33.94
2022-08-04T11:07:25.001Z,33.37
2022-08-04T11:08:35.761Z,33.32
2022-08-04T11:09:40.587Z,33.23
2022-08-04T11:11:01.685Z,33.13
2022-08-04T11:12:10.007Z,33.38
2022-08-04T11:13:21.949Z,33.67
2022-08-04T11:14:38.837Z,33.63
2022-08-04T11:15:47.187Z,33.51
2022-08-04T11:16:56.487Z,33.30
2022-08-04T11:18:03.075Z,32.96
2022-08-04T11:19:22.085Z,32.80
2022-08-04T11:20:50.522Z,32.72
2022-08-04T11:21:58.073Z,32.66
2022-08-04T11:23:06.814Z,32.84
2022-08-04T11:24:18.239Z,32.91
2022-08-04T11:25:24.832Z,33.28
2022-08-04T11:26:37.463Z,31.98
2022-08-04T11:27:57.088Z,32.75
2022-08-04T11:29:07.631Z,32.69
2022-08-04T11:30:13.968Z,32.16
2022-08-04T11:31:22.073Z,32.44
2022-08-04T11:32:32.810Z,32.48
2022-08-04T11:33:43.148Z,32.16
2022-08-04T11:34:52.608Z,31.83
2022-08-04T11:36:02.256Z,31.76
2022-08-04T11:37:14.062Z,31.26
2022-08-04T11:38:24.176Z,31.18
2022-08-04T11:39:37.738Z,31.31
2022-08-04T11:40:55.628Z,31.83
2022-08-04T11:42:13.626Z,31.86
2022-08-04T11:44:00.474Z,31.78
2022-08-04T11:44:48.684Z,31.33
2022-08-04T11:45:55.320Z,31.00
2022-08-04T11:47:04.311Z,31.20
2022-08-04T11:48:10.703Z,31.02
2022-08-04T11:49:23.583Z,31.18
2022-08-04T11:50:32.540Z,31.36
2022-08-04T11:51:37.374Z,31.40
2022-08-04T11:52:44.252Z,31.23
2022-08-04T11:53:48.711Z,30.94
2022-08-04T11:54:55.055Z,31.21
2022-08-04T11:56:09.357Z,31.11
2022-08-04T11:57:15.512Z,31.14
2022-08-04T11:58:18.645Z,31.25
2022-08-04T11:59:24.443Z,30.42
2022-08-04T12:00:31.646Z,30.22
2022-08-04T12:01:39.283Z,30.91
2022-08-04T12:03:03.483Z,30.52
2022-08-04T12:04:14.513Z,31.94
2022-08-04T12:05:32.259Z,32.26
2022-08-04T12:06:56.830Z,31.19
2022-08-04T12:08:15.608Z,30.47
2022-08-04T12:09:29.508Z,30.65
2022-08-04T12:10:43.231Z,29.95
2022-08-04T12:12:04.640Z,29.47
2022-08-04T12:13:13.943Z,29.85
2022-08-04T12:14:28.734Z,29.52
2022-08-04T12:15:49.918Z,30.44
2022-08-04T12:16:58.805Z,30.74
2022-08-04T12:18:10.604Z,30.57
2022-08-04T12:19:18.313Z,30.29
2022-08-04T12:20:31.709Z,30.38
2022-08-04T12:21:53.194Z,30.71
2022-08-04T12:23:00.263Z,30.81
2022-08-04T12:24:08.091Z,30.03
2022-08-04T12:25:14.846Z,30.09
2022-08-04T12:26:38.763Z,29.73
2022-08-04T12:27:45.765Z,29.92
2022-08-04T12:29:09.670Z,29.76
2022-08-04T12:30:58.924Z,30.37
2022-08-04T12:31:45.585Z,28.99
2022-08-04T12:32:54.889Z,29.06
2022-08-04T12:34:04.695Z,29.96
2022-08-04T12:35:17.201Z,29.81
2022-08-04T12:36:25.685Z,29.97
2022-08-04T12:37:38.888Z,29.64
2022-08-04T12:38:48.943Z,29.96
2022-08-04T12:40:28.511Z,29.82
2022-08-04T12:41:25.723Z,29.99
2022-08-04T12:42:35.240Z,29.27
2022-08-04T12:43:39.675Z,29.38
2022-08-04T12:44:44.865Z,29.35
2022-08-04T12:45:51.758Z,29.09
2022-08-04T12:47:28.510Z,28.52
2022-08-04T12:48:21.900Z,29.00
2022-08-04T12:49:26.117Z,29.36
2022-08-04T12:50:31.342Z,28.73
2022-08-04T12:52:07.917Z,28.92
2022-08-04T12:53:03.890Z,29.04
2022-08-04T12:54:08.636Z,29.01
2022-08-04T12:55:13.763Z,29.07
2022-08-04T12:56:25.674Z,29.08
2022-08-04T12:57:30.035Z,29.26
2022-08-04T12:58:43.487Z,28.84
2022-08-04T12:59:57.191Z,29.25
2022-08-04T13:02:08.919Z,29.36
2022-08-04T13:02:33.262Z,28.93
2022-08-04T13:03:41.604Z,28.60
2022-08-04T13:04:51.239Z,28.76
2022-08-04T13:05:56.413Z,28.37
2022-08-04T13:07:05.482Z,28.88
2022-08-04T13:08:09.917Z,28.95
2022-08-04T13:09:18.418Z,28.58
2022-08-04T13:10:23.498Z,28.73
2022-08-04T13:11:39.713Z,28.69
2022-08-04T13:12:45.974Z,28.29
2022-08-04T13:14:17.293Z,29.20
2022-08-04T13:15:23.130Z,29.21
2022-08-04T13:16:34.473Z,29.71
2022-08-04T13:17:50.948Z,29.39
2022-08-04T13:18:55.410Z,28.89
2022-08-04T13:19:59.784Z,29.42
2022-08-04T13:21:21.043Z,28.22
2022-08-04T13:22:29.792Z,29.19
2022-08-04T13:24:10.911Z,29.15
2022-08-04T13:26:41.307Z,29.43
2022-08-04T13:26:42.531Z,29.88
2022-08-04T13:27:55.329Z,29.70
2022-08-04T13:29:01.844Z,29.50
2022-08-04T13:30:22.904Z,29.86
2022-08-04T13:31:35.694Z,29.93
2022-08-04T13:32:40.487Z,29.84
2022-08-04T13:33:46.664Z,29.60
2022-08-04T13:34:53.905Z,29.22
2022-08-04T13:36:00.809Z,29.84
2022-08-04T13:37:05.453Z,29.65
2022-08-04T13:38:10.432Z,29.65
2022-08-04T13:39:17.743Z,29.33
2022-08-04T13:40:24.285Z,29.32
2022-08-04T13:41:36.950Z,29.42
2022-08-04T13:42:49.960Z,29.25
2022-08-04T13:44:18.279Z,29.49
2022-08-04T13:45:24.045Z,29.77
2022-08-04T13:46:50.579Z,29.17
2022-08-04T13:48:15.688Z,29.52
2022-08-04T13:49:42.942Z,30.39
2022-08-04T13:50:49.840Z,30.42
2022-08-04T13:51:58.931Z,29.87
2022-08-04T13:53:04.676Z,30.40
2022-08-04T13:54:08.093Z,30.07
2022-08-04T13:55:25.329Z,29.60
2022-08-04T13:56:32.575Z,29.89
2022-08-04T13:57:45.454Z,30.31
2022-08-04T13:58:57.323Z,30.62
2022-08-04T14:00:08.544Z,30.46
2022-08-04T14:01:17.907Z,30.35
2022-08-04T14:02:33.232Z,30.37
2022-08-04T14:03:53.434Z,30.46
2022-08-04T14:05:05.169Z,30.62
2022-08-04T14:06:14.655Z,30.53
2022-08-04T14:07:21.246Z,30.28
2022-08-04T14:08:27.164Z,30.18
2022-08-04T14:09:36.031Z,29.98
2022-08-04T14:10:40.607Z,30.22
2022-08-04T14:12:09.112Z,30.17
2022-08-04T14:13:10.668Z,29.91
2022-08-04T14:14:21.375Z,29.90
2022-08-04T14:16:02.443Z,29.72
2022-08-04T14:16:59.282Z,29.83
2022-08-04T14:18:18.224Z,28.51
2022-08-04T14:19:22.627Z,29.31
2022-08-04T14:20:27.882Z,29.42
2022-08-04T14:21:37.864Z,29.00
2022-08-04T14:22:40.917Z,29.27
2022-08-04T14:23:50.893Z,29.04
2022-08-04T14:24:57.564Z,29.11
2022-08-04T14:26:01.852Z,29.13
2022-08-04T14:27:06.200Z,29.52
2022-08-04T14:28:10.463Z,29.76
2022-08-04T14:29:26.789Z,29.31
2022-08-04T14:30:35.613Z,29.63
2022-08-04T14:31:55.400Z,29.10
2022-08-04T14:34:02.630Z,29.20
2022-08-04T14:34:31.364Z,29.83
2022-08-04T14:35:50.459Z,29.24
2022-08-04T14:37:17.604Z,29.43
2022-08-04T14:38:19.340Z,29.16
2022-08-04T14:39:41.487Z,28.34
2022-08-04T14:40:45.998Z,29.23
2022-08-04T14:41:52.163Z,29.35
2022-08-04T14:42:56.515Z,29.41
2022-08-04T14:44:02.392Z,29.68
2022-08-04T14:45:09.693Z,29.19
2022-08-04T14:46:14.070Z,29.07
2022-08-04T14:47:17.102Z,29.77
2022-08-04T14:48:22.140Z,29.32
2022-08-04T14:49:26.804Z,28.86
2022-08-04T14:50:39.021Z,29.25
2022-08-04T14:51:45.018Z,28.77
2022-08-04T14:52:48.165Z,28.62
2022-08-04T14:53:52.352Z,27.87
2022-08-04T14:54:55.617Z,28.73
2022-08-04T14:56:01.277Z,28.82
2022-08-04T14:57:07.344Z,28.50
2022-08-04T14:58:35.742Z,28.37
2022-08-04T14:59:44.167Z,28.87
2022-08-04T15:01:10.502Z,28.81
2022-08-04T15:02:17.152Z,28.84
2022-08-04T15:03:21.973Z,28.67
2022-08-04T15:04:26.601Z,29.45
2022-08-04T15:05:55.021Z,28.68
2022-08-04T15:06:55.376Z,28.87
2022-08-04T15:07:59.138Z,28.98
2022-08-04T15:09:05.861Z,28.89
2022-08-04T15:10:09.613Z,28.76
2022-08-04T15:11:23.506Z,28.93
2022-08-04T15:12:28.496Z,28.89
2022-08-04T15:13:32.657Z,29.25
2022-08-04T15:14:38.422Z,29.21
2022-08-04T15:15:42.636Z,28.92
2022-08-04T15:17:27.155Z,28.92
2022-08-04T15:18:31.778Z,28.22
2022-08-04T15:19:36.534Z,28.52
2022-08-04T15:20:42.460Z,28.99
2022-08-04T15:21:46.586Z,28.79
2022-08-04T15:22:50.067Z,28.87
2022-08-04T15:23:54.321Z,28.76
2022-08-04T15:24:58.426Z,28.80
2022-08-04T15:26:03.870Z,28.51
2022-08-04T15:27:08.555Z,28.48
2022-08-04T15:28:14.433Z,28.71
2022-08-04T15:29:22.103Z,28.45
2022-08-04T15:30:25.386Z,28.53
2022-08-04T15:32:06.308Z,28.75
2022-08-04T15:32:59.845Z,28.46
2022-08-04T15:34:03.023Z,29.28
2022-08-04T15:35:12.784Z,28.81
2022-08-04T15:36:21.874Z,28.96
2022-08-04T15:37:30.345Z,29.35
2022-08-04T15:38:38.904Z,28.85
2022-08-04T15:39:46.710Z,29.13
2022-08-04T15:40:58.101Z,29.50
2022-08-04T15:42:16.171Z,28.12
2022-08-04T15:43:44.942Z,28.33
2022-08-04T15:45:05.803Z,29.22
2022-08-04T15:46:42.384Z,29.27
2022-08-04T15:47:34.640Z,29.51
2022-08-04T15:48:39.456Z,29.66
2022-08-04T15:49:44.941Z,29.68
2022-08-04T15:51:05.080Z,29.84
2022-08-04T15:52:12.419Z,29.90
2022-08-04T15:53:22.950Z,30.54
2022-08-04T15:54:27.959Z,30.59
2022-08-04T15:55:37.891Z,30.58
2022-08-04T15:56:48.450Z,30.87
2022-08-04T15:58:07.207Z,30.85
2022-08-04T15:59:10.478Z,31.25